Time;durP1;ratioP1;P1;durP2;ratioP2;P2;SDS_P1;SDS_P2;PMS_P1;PMS_P2;Temp;Humidity;BMP_temperature;BMP_pressure;BME280_temperature;BME280_humidity;BME280_pressure;Samples;Min_cycle;Max_cycle;Signal;HPM_P1;HPM_P2
2022/06/03 00:01:45;;;;;;;5.90;3.30;;;;;;;;;;4984130;28;20299;-74
2022/06/03 00:04:19;;;;;;;5.10;3.30;;;;;;;;;;4985796;28;20228;-74
2022/06/03 00:06:55;;;;;;;6.47;3.20;;;;;;;;;;4984317;28;20284;-74
2022/06/03 00:09:33;;;;;;;5.50;3.27;;;;;;;;;;4989576;28;20235;-74
2022/06/03 00:12:08;;;;;;;7.57;3.30;;;;;;;;;;4985168;28;20200;-74
2022/06/03 00:14:47;;;;;;;5.00;3.27;;;;;;;;;;4986123;28;20330;-74
2022/06/03 00:17:26;;;;;;;6.93;3.57;;;;;;;;;;4982558;28;20663;-74
2022/06/03 00:19:59;;;;;;;4.80;3.33;;;;;;;;;;4984967;28;20197;-74
2022/06/03 00:22:36;;;;;;;6.50;3.63;;;;;;;;;;4988078;28;20201;-74
2022/06/03 00:25:16;;;;;;;5.40;3.03;;;;;;;;;;4983589;28;20340;-73
2022/06/03 00:27:51;;;;;;;7.40;3.27;;;;;;;;;;4986969;28;20291;-74
2022/06/03 00:30:34;;;;;;;5.43;3.30;;;;;;;;;;4983653;28;20227;-74
2022/06/03 00:33:16;;;;;;;10.93;3.63;;;;;;;;;;4985062;28;20678;-74
2022/06/03 00:35:48;;;;;;;6.07;3.20;;;;;;;;;;4984572;28;20232;-74
2022/06/03 00:38:24;;;;;;;6.93;3.77;;;;;;;;;;4984837;28;20292;-73
2022/06/03 00:40:59;;;;;;;5.27;3.23;;;;;;;;;;4983284;28;20759;-74
2022/06/03 00:43:32;;;;;;;5.70;3.23;;;;;;;;;;4986801;28;20201;-74
2022/06/03 00:46:06;;;;;;;7.80;3.80;;;;;;;;;;4985613;28;20216;-74
2022/06/03 00:48:42;;;;;;;4.10;3.03;;;;;;;;;;4985376;28;20209;-75
2022/06/03 00:51:24;;;;;;;6.53;3.57;;;;;;;;;;4987620;28;20288;-75
2022/06/03 00:53:59;;;;;;;6.50;3.57;;;;;;;;;;4973441;28;20324;-74
2022/06/03 00:56:47;;;;;;;4.27;3.17;;;;;;;;;;4982892;28;20213;-75
2022/06/03 00:59:22;;;;;;;5.10;3.30;;;;;;;;;;4976404;28;20213;-75
2022/06/03 01:01:55;;;;;;;5.07;2.97;;;;;;;;;;4984625;28;20239;-75
2022/06/03 01:04:30;;;;;;;5.73;3.13;;;;;;;;;;4982763;28;20320;-74
2022/06/03 01:07:02;;;;;;;9.47;3.20;;;;;;;;;;4982277;28;20201;-74
2022/06/03 01:09:37;;;;;;;5.87;3.17;;;;;;;;;;4986384;28;20268;-74
2022/06/03 01:12:13;;;;;;;5.73;3.37;;;;;;;;;;4985565;28;20273;-74
2022/06/03 01:14:54;;;;;;;7.00;3.60;;;;;;;;;;4985973;28;20315;-75
2022/06/03 01:17:29;;;;;;;7.23;3.33;;;;;;;;;;4985319;28;20293;-74
2022/06/03 01:20:01;;;;;;;7.83;3.30;;;;;;;;;;4981261;28;20201;-74
2022/06/03 01:22:55;;;;;;;5.07;3.30;;;;;;;;;;4985268;28;20204;-74
2022/06/03 01:25:33;;;;;;;6.10;3.20;;;;;;;;;;4956948;28;21402;-74
2022/06/03 01:28:15;;;;;;;10.20;3.60;;;;;;;;;;4978434;28;20205;-74
2022/06/03 01:30:57;;;;;;;6.77;3.47;;;;;;;;;;4981472;28;20225;-74
2022/06/03 01:33:34;;;;;;;7.37;3.60;;;;;;;;;;4986907;28;20211;-74
2022/06/03 01:36:16;;;;;;;8.53;3.73;;;;;;;;;;4982932;28;20293;-74
2022/06/03 01:39:03;;;;;;;6.90;3.67;;;;;;;;;;4981655;28;20200;-74
2022/06/03 01:41:39;;;;;;;10.67;3.47;;;;;;;;;;4985839;28;20243;-74
2022/06/03 01:44:17;;;;;;;5.80;3.90;;;;;;;;;;4980615;28;20231;-74
2022/06/03 01:46:47;;;;;;;6.20;3.37;;;;;;;;;;4984540;28;20204;-74
2022/06/03 01:49:35;;;;;;;7.87;3.10;;;;;;;;;;4983630;28;20299;-74
2022/06/03 01:52:24;;;;;;;4.67;3.10;;;;;;;;;;4983342;28;20691;-74
2022/06/03 01:55:18;;;;;;;8.07;3.60;;;;;;;;;;4981639;28;20221;-74
2022/06/03 01:57:54;;;;;;;6.50;3.30;;;;;;;;;;4984982;28;20292;-74
2022/06/03 02:00:27;;;;;;;7.00;3.40;;;;;;;;;;4984603;28;20516;-74
2022/06/03 02:03:09;;;;;;;5.37;3.20;;;;;;;;;;4983103;28;20205;-73
2022/06/03 02:06:01;;;;;;;7.47;3.23;;;;;;;;;;4983924;28;20587;-73
2022/06/03 02:08:43;;;;;;;5.60;3.20;;;;;;;;;;4983994;28;20292;-73
2022/06/03 02:11:30;;;;;;;5.90;3.30;;;;;;;;;;4980978;28;20201;-73
2022/06/03 02:14:08;;;;;;;10.67;3.37;;;;;;;;;;4985233;28;20682;-73
2022/06/03 02:16:51;;;;;;;5.00;3.10;;;;;;;;;;4985612;28;20201;-73
2022/06/03 02:19:33;;;;;;;6.10;3.00;;;;;;;;;;4983891;28;20202;-74
2022/06/03 02:22:09;;;;;;;4.87;3.37;;;;;;;;;;4984322;28;20293;-73
2022/06/03 02:24:43;;;;;;;8.63;3.50;;;;;;;;;;4982552;28;20221;-74
2022/06/03 02:27:34;;;;;;;4.20;3.17;;;;;;;;;;4983260;28;20205;-75
2022/06/03 02:30:27;;;;;;;4.80;2.80;;;;;;;;;;4980327;28;20213;-75
2022/06/03 02:33:09;;;;;;;4.83;3.00;;;;;;;;;;4982762;28;20307;-74
2022/06/03 02:35:42;;;;;;;5.73;2.90;;;;;;;;;;4980973;28;20730;-75
2022/06/03 02:38:24;;;;;;;5.03;2.97;;;;;;;;;;4981293;28;20209;-75
2022/06/03 02:41:09;;;;;;;4.63;3.17;;;;;;;;;;4983294;28;20255;-75
2022/06/03 02:43:49;;;;;;;5.60;2.93;;;;;;;;;;4985191;28;20208;-75
2022/06/03 02:46:32;;;;;;;6.13;3.37;;;;;;;;;;4982774;28;21506;-75
2022/06/03 02:49:18;;;;;;;5.20;3.40;;;;;;;;;;4981427;28;20287;-75
2022/06/03 02:52:06;;;;;;;5.43;3.10;;;;;;;;;;4982839;28;20288;-75
2022/06/03 02:54:52;;;;;;;4.30;2.80;;;;;;;;;;4976330;28;20732;-75
2022/06/03 02:57:28;;;;;;;10.67;3.30;;;;;;;;;;4982998;28;20252;-75
2022/06/03 03:00:00;;;;;;;4.37;3.00;;;;;;;;;;4983817;28;20232;-75
2022/06/03 03:02:52;;;;;;;4.03;2.87;;;;;;;;;;4983525;28;20232;-75
2022/06/03 03:05:23;;;;;;;4.43;2.83;;;;;;;;;;4981188;28;20229;-77
2022/06/03 03:08:10;;;;;;;7.43;3.10;;;;;;;;;;4981733;28;20720;-75
2022/06/03 03:10:50;;;;;;;4.30;3.00;;;;;;;;;;4984152;28;20316;-75
2022/06/03 03:13:31;;;;;;;6.07;3.30;;;;;;;;;;4982811;28;22031;-75
2022/06/03 03:16:09;;;;;;;5.13;3.20;;;;;;;;;;4981681;28;20209;-75
2022/06/03 03:18:53;;;;;;;6.87;3.30;;;;;;;;;;4983642;28;20908;-75
2022/06/03 03:21:26;;;;;;;7.47;3.00;;;;;;;;;;4982446;28;21145;-74
2022/06/03 03:24:11;;;;;;;5.43;3.10;;;;;;;;;;4983527;28;20220;-74
2022/06/03 03:26:44;;;;;;;5.50;2.70;;;;;;;;;;4981808;28;20219;-74
2022/06/03 03:29:20;;;;;;;7.07;3.40;;;;;;;;;;4980404;28;20209;-75
2022/06/03 03:31:56;;;;;;;9.37;3.20;;;;;;;;;;4983947;28;20204;-74
2022/06/03 03:34:41;;;;;;;6.30;3.10;;;;;;;;;;4982968;28;20711;-74
2022/06/03 03:37:19;;;;;;;9.27;3.33;;;;;;;;;;4979695;28;20197;-74
2022/06/03 03:40:06;;;;;;;9.83;3.80;;;;;;;;;;4981723;28;20203;-75
2022/06/03 03:42:48;;;;;;;10.57;3.10;;;;;;;;;;4982539;28;20208;-74
2022/06/03 03:45:33;;;;;;;6.13;3.00;;;;;;;;;;4981593;28;20241;-74
2022/06/03 03:48:19;;;;;;;6.50;3.13;;;;;;;;;;4978092;28;20204;-74
2022/06/03 03:51:07;;;;;;;5.00;3.20;;;;;;;;;;4982545;28;20303;-74
2022/06/03 03:53:52;;;;;;;5.07;3.03;;;;;;;;;;4976740;28;20609;-74
2022/06/03 03:56:40;;;;;;;4.20;3.13;;;;;;;;;;4979378;28;20502;-74
2022/06/03 03:59:31;;;;;;;6.90;3.40;;;;;;;;;;4981387;28;20211;-74
2022/06/03 04:02:28;;;;;;;5.07;3.27;;;;;;;;;;4924068;28;20250;-74
2022/06/03 04:05:13;;;;;;;11.33;3.90;;;;;;;;;;4982226;28;20228;-74
2022/06/03 04:07:58;;;;;;;9.83;3.40;;;;;;;;;;4982563;28;20283;-74
2022/06/03 04:10:40;;;;;;;4.80;3.00;;;;;;;;;;4980850;28;20231;-74
2022/06/03 04:13:15;;;;;;;9.03;3.53;;;;;;;;;;4982130;28;20205;-74
2022/06/03 04:15:57;;;;;;;7.20;3.83;;;;;;;;;;4980516;28;20211;-74
2022/06/03 04:18:35;;;;;;;4.77;2.93;;;;;;;;;;4980277;28;20639;-74
2022/06/03 04:21:29;;;;;;;5.47;3.10;;;;;;;;;;4980445;28;20758;-74
2022/06/03 04:24:26;;;;;;;8.03;3.20;;;;;;;;;;4969682;28;20231;-74
2022/06/03 04:27:12;;;;;;;4.23;2.80;;;;;;;;;;4978278;28;20210;-75
2022/06/03 04:29:56;;;;;;;7.57;2.77;;;;;;;;;;4981493;28;20216;-75
2022/06/03 04:32:44;;;;;;;5.83;2.20;;;;;;;;;;4978743;28;20227;-75
2022/06/03 04:35:29;;;;;;;3.27;2.30;;;;;;;;;;4971751;28;20337;-75
2022/06/03 04:38:17;;;;;;;3.87;2.30;;;;;;;;;;4982179;28;20240;-74
2022/06/03 04:41:02;;;;;;;5.33;2.73;;;;;;;;;;4984701;28;20198;-75
2022/06/03 04:43:47;;;;;;;3.90;2.67;;;;;;;;;;4983444;28;20239;-75
2022/06/03 04:46:39;;;;;;;4.77;2.40;;;;;;;;;;4982553;28;20291;-75
2022/06/03 04:49:38;;;;;;;3.33;2.47;;;;;;;;;;4947782;28;20331;-75
2022/06/03 04:52:20;;;;;;;3.53;2.30;;;;;;;;;;4984076;28;20660;-75
2022/06/03 04:55:07;;;;;;;7.37;2.60;;;;;;;;;;4984682;28;20594;-75
2022/06/03 04:58:01;;;;;;;5.93;2.40;;;;;;;;;;4980996;28;20581;-75
2022/06/03 05:00:42;;;;;;;7.07;2.50;;;;;;;;;;4984444;28;20298;-74
2022/06/03 05:03:28;;;;;;;5.10;2.40;;;;;;;;;;4984747;28;20304;-74
2022/06/03 05:06:10;;;;;;;3.17;1.97;;;;;;;;;;4984253;28;20287;-75
2022/06/03 05:09:06;;;;;;;4.33;2.37;;;;;;;;;;4986717;28;20212;-75
2022/06/03 05:11:48;;;;;;;7.07;2.60;;;;;;;;;;4982694;28;20220;-75
2022/06/03 05:14:31;;;;;;;7.07;2.60;;;;;;;;;;4963646;28;20236;-74
2022/06/03 05:17:10;;;;;;;10.37;2.40;;;;;;;;;;4941492;28;20201;-75
2022/06/03 05:19:49;;;;;;;8.23;2.83;;;;;;;;;;4984593;28;20208;-74
2022/06/03 05:22:36;;;;;;;9.30;2.60;;;;;;;;;;4983930;28;20207;-74
2022/06/03 05:25:20;;;;;;;10.50;2.80;;;;;;;;;;4982434;28;20839;-74
2022/06/03 05:28:00;;;;;;;6.50;2.80;;;;;;;;;;4982242;28;20213;-74
2022/06/03 05:30:37;;;;;;;10.13;3.00;;;;;;;;;;4987513;28;20235;-74
2022/06/03 05:33:20;;;;;;;14.13;2.60;;;;;;;;;;4986717;28;20292;-74
2022/06/03 05:36:02;;;;;;;10.33;2.67;;;;;;;;;;4980654;28;20245;-74
2022/06/03 05:38:49;;;;;;;6.47;2.80;;;;;;;;;;4968007;28;20217;-74
2022/06/03 05:44:19;;;;;;;12.17;2.83;;;;;;;;;;4985168;28;20240;-74
2022/06/03 05:46:53;;;;;;;6.47;2.53;;;;;;;;;;4980738;28;20201;-74
2022/06/03 05:49:25;;;;;;;10.13;2.70;;;;;;;;;;4982762;28;20204;-74
2022/06/03 05:52:03;;;;;;;7.77;2.10;;;;;;;;;;4981365;28;20217;-73
2022/06/03 05:54:44;;;;;;;7.80;2.03;;;;;;;;;;4983479;28;20229;-74
2022/06/03 05:57:20;;;;;;;7.50;2.20;;;;;;;;;;4982861;28;20209;-74
2022/06/03 05:59:55;;;;;;;4.43;2.20;;;;;;;;;;4983727;28;20632;-73
2022/06/03 06:02:25;;;;;;;4.83;2.00;;;;;;;;;;4984912;28;20303;-74
2022/06/03 06:04:59;;;;;;;4.90;1.80;;;;;;;;;;4983233;28;20225;-74
2022/06/03 06:07:28;;;;;;;3.57;2.23;;;;;;;;;;4982939;28;20208;-73
2022/06/03 06:10:01;;;;;;;4.33;1.80;;;;;;;;;;4980284;28;20591;-74
2022/06/03 06:12:32;;;;;;;5.87;2.07;;;;;;;;;;4973788;28;20232;-74
2022/06/03 06:15:08;;;;;;;3.10;1.80;;;;;;;;;;4980159;28;20321;-74
2022/06/03 06:17:43;;;;;;;3.13;1.80;;;;;;;;;;4973645;28;20303;-74
2022/06/03 06:20:17;;;;;;;3.97;1.60;;;;;;;;;;4981193;28;20205;-73
2022/06/03 06:22:46;;;;;;;3.73;2.03;;;;;;;;;;4978280;28;20549;-73
2022/06/03 06:25:20;;;;;;;3.87;1.80;;;;;;;;;;4980557;28;20227;-74
2022/06/03 06:28:01;;;;;;;3.30;1.80;;;;;;;;;;4983277;28;20219;-74
2022/06/03 06:30:49;;;;;;;4.73;1.80;;;;;;;;;;4980305;28;20225;-74
2022/06/03 06:33:27;;;;;;;3.17;1.47;;;;;;;;;;4981094;28;20201;-75
2022/06/03 06:36:02;;;;;;;5.50;1.57;;;;;;;;;;4980737;28;20196;-75
2022/06/03 06:38:31;;;;;;;1.90;1.30;;;;;;;;;;4983583;28;20200;-74
2022/06/03 06:41:07;;;;;;;10.03;1.53;;;;;;;;;;4982536;28;20204;-74
2022/06/03 06:43:39;;;;;;;2.50;1.47;;;;;;;;;;4979989;28;20300;-74
2022/06/03 06:46:12;;;;;;;2.70;1.30;;;;;;;;;;4983186;28;20208;-74
2022/06/03 06:48:44;;;;;;;3.10;1.47;;;;;;;;;;4978514;28;20647;-74
2022/06/03 06:51:18;;;;;;;1.67;1.30;;;;;;;;;;4981314;28;20312;-74
2022/06/03 06:53:48;;;;;;;2.73;1.33;;;;;;;;;;4979950;28;21259;-74
2022/06/03 06:56:22;;;;;;;4.00;1.47;;;;;;;;;;4978989;28;20240;-74
2022/06/03 06:58:51;;;;;;;3.83;1.37;;;;;;;;;;4981179;28;20632;-75
2022/06/03 07:01:20;;;;;;;2.37;1.40;;;;;;;;;;4975919;28;20260;-74
2022/06/03 07:03:58;;;;;;;2.13;1.40;;;;;;;;;;4980518;28;20235;-74
2022/06/03 07:06:29;;;;;;;2.60;1.27;;;;;;;;;;4977158;28;20948;-75
2022/06/03 07:09:00;;;;;;;4.13;1.20;;;;;;;;;;4983860;28;20646;-75
2022/06/03 07:11:35;;;;;;;3.33;1.23;;;;;;;;;;4981247;28;20224;-75
2022/06/03 07:14:05;;;;;;;1.90;1.00;;;;;;;;;;4980139;28;20297;-76
2022/06/03 07:22:16;;;;;;;1.53;1.20;;;;;;;;;;4979274;28;20219;-76
2022/06/03 07:24:46;;;;;;;2.27;1.10;;;;;;;;;;4978582;28;20320;-76
2022/06/03 07:27:19;;;;;;;2.80;0.90;;;;;;;;;;4977541;28;20304;-76
2022/06/03 07:29:48;;;;;;;6.00;1.10;;;;;;;;;;4976848;28;20625;-76
2022/06/03 07:32:19;;;;;;;5.10;1.50;;;;;;;;;;4981179;28;20220;-76
2022/06/03 07:34:50;;;;;;;6.87;1.40;;;;;;;;;;4979245;28;20232;-76
2022/06/03 07:37:21;;;;;;;2.37;1.10;;;;;;;;;;4978647;28;20738;-76
2022/06/03 07:39:53;;;;;;;7.43;1.17;;;;;;;;;;4980744;28;20204;-75
2022/06/03 07:42:31;;;;;;;3.60;1.20;;;;;;;;;;4980126;28;20216;-76
2022/06/03 07:45:04;;;;;;;3.73;1.20;;;;;;;;;;4982353;28;20216;-76
2022/06/03 07:47:33;;;;;;;2.00;1.00;;;;;;;;;;4978001;28;20205;-76
2022/06/03 07:50:02;;;;;;;2.43;1.30;;;;;;;;;;4976167;28;20217;-74
2022/06/03 07:52:33;;;;;;;2.40;1.20;;;;;;;;;;4977108;28;20263;-74
2022/06/03 07:55:01;;;;;;;2.17;1.10;;;;;;;;;;4981686;28;20225;-74
2022/06/03 07:57:30;;;;;;;4.83;1.10;;;;;;;;;;4978735;28;20307;-75
2022/06/03 07:59:58;;;;;;;8.77;1.20;;;;;;;;;;4983470;28;20284;-75
2022/06/03 08:02:25;;;;;;;6.53;1.10;;;;;;;;;;4977273;28;20211;-75
2022/06/03 08:05:01;;;;;;;2.07;1.10;;;;;;;;;;4977971;28;20319;-74
2022/06/03 08:13:02;;;;;;;4.07;1.40;;;;;;;;;;4984739;28;20212;-75
2022/06/03 08:15:30;;;;;;;3.97;1.00;;;;;;;;;;4983205;28;20260;-75
2022/06/03 08:18:00;;;;;;;1.83;0.90;;;;;;;;;;4977187;28;20288;-75
2022/06/03 08:20:28;;;;;;;2.60;1.03;;;;;;;;;;4983632;28;20220;-75
2022/06/03 08:22:55;;;;;;;2.17;1.10;;;;;;;;;;4981946;28;20344;-75
2022/06/03 08:25:25;;;;;;;1.67;0.93;;;;;;;;;;4984191;28;20330;-75
2022/06/03 08:27:53;;;;;;;2.83;0.90;;;;;;;;;;4983222;28;20213;-75
2022/06/03 08:30:24;;;;;;;4.20;0.90;;;;;;;;;;4982277;28;20233;-75
2022/06/03 08:32:54;;;;;;;1.73;1.00;;;;;;;;;;4982765;28;20241;-75
2022/06/03 08:35:23;;;;;;;3.40;0.90;;;;;;;;;;4980416;28;20278;-75
2022/06/03 08:37:51;;;;;;;1.20;0.90;;;;;;;;;;4984120;28;20713;-75
2022/06/03 08:40:25;;;;;;;1.13;0.83;;;;;;;;;;4981849;28;20757;-75
2022/06/03 08:42:56;;;;;;;1.10;0.87;;;;;;;;;;4980325;28;20646;-74
2022/06/03 08:45:33;;;;;;;1.53;1.20;;;;;;;;;;4981446;28;20719;-73
2022/06/03 08:48:02;;;;;;;1.33;0.93;;;;;;;;;;4982087;28;20233;-75
2022/06/03 08:50:31;;;;;;;1.63;0.90;;;;;;;;;;4981250;28;20702;-75
2022/06/03 08:53:01;;;;;;;1.63;1.10;;;;;;;;;;4980319;28;20264;-75
2022/06/03 08:55:32;;;;;;;0.70;0.70;;;;;;;;;;4984424;28;20225;-74
2022/06/03 08:58:01;;;;;;;1.30;1.00;;;;;;;;;;4986015;28;20296;-74
2022/06/03 09:00:41;;;;;;;2.77;1.00;;;;;;;;;;4982505;28;20207;-74
2022/06/03 09:03:11;;;;;;;2.67;1.00;;;;;;;;;;4983245;28;20202;-74
2022/06/03 09:05:40;;;;;;;2.13;1.10;;;;;;;;;;5157292;23;20232;-83
2022/06/03 09:08:12;;;;;;;3.20;1.33;;;;;;;;;;5027859;28;20200;-84
2022/06/03 09:10:42;;;;;;;1.43;1.20;;;;;;;;;;5024328;28;21025;-83
2022/06/03 09:13:13;;;;;;;2.93;1.00;;;;;;;;;;5023748;28;20224;-84
2022/06/03 09:15:44;;;;;;;1.97;1.10;;;;;;;;;;5015965;28;20203;-81
2022/06/03 09:18:16;;;;;;;1.90;1.00;;;;;;;;;;5022402;28;20209;-84
2022/06/03 09:20:47;;;;;;;1.80;1.10;;;;;;;;;;5022284;28;20637;-83
2022/06/03 09:23:16;;;;;;;2.93;1.20;;;;;;;;;;5022648;28;20243;-81
2022/06/03 09:25:47;;;;;;;1.60;1.10;;;;;;;;;;5023100;28;20243;-82
2022/06/03 09:28:15;;;;;;;1.67;1.00;;;;;;;;;;5025757;28;20675;-82
2022/06/03 09:30:46;;;;;;;1.63;1.30;;;;;;;;;;5024649;28;21222;-81
2022/06/03 09:33:16;;;;;;;3.13;1.33;;;;;;;;;;5022317;28;20205;-81
2022/06/03 09:35:45;;;;;;;5.77;1.27;;;;;;;;;;5018534;28;20637;-83
2022/06/03 09:38:14;;;;;;;3.23;1.23;;;;;;;;;;5027535;28;20205;-81
2022/06/03 09:40:42;;;;;;;3.10;1.30;;;;;;;;;;5025169;28;20224;-81
2022/06/03 09:43:15;;;;;;;1.10;1.00;;;;;;;;;;5024778;28;20636;-81
2022/06/03 09:45:45;;;;;;;2.03;1.20;;;;;;;;;;5025514;28;20347;-82
2022/06/03 09:48:14;;;;;;;3.03;1.57;;;;;;;;;;5025693;28;20206;-81
2022/06/03 09:50:41;;;;;;;1.87;1.30;;;;;;;;;;5026029;28;20292;-82
2022/06/03 09:53:11;;;;;;;5.40;1.80;;;;;;;;;;5027072;28;20203;-82
2022/06/03 09:55:40;;;;;;;2.60;1.47;;;;;;;;;;5024673;28;20215;-81
2022/06/03 09:58:10;;;;;;;1.70;1.30;;;;;;;;;;5031697;28;20271;-84
2022/06/03 10:00:38;;;;;;;2.43;1.13;;;;;;;;;;5026453;28;20226;-83
2022/06/03 10:03:06;;;;;;;2.00;1.10;;;;;;;;;;5023069;28;20533;-82
2022/06/03 10:05:34;;;;;;;4.00;1.50;;;;;;;;;;5027052;28;20274;-83
2022/06/03 10:08:03;;;;;;;2.13;1.50;;;;;;;;;;5030528;28;20295;-84
2022/06/03 10:13:16;;;;;;;1.53;1.17;;;;;;;;;;5027072;28;20203;-83
2022/06/03 10:15:46;;;;;;;1.73;1.40;;;;;;;;;;5027780;28;20586;-83
2022/06/03 10:18:16;;;;;;;1.60;1.33;;;;;;;;;;5024604;28;20305;-81
2022/06/03 10:20:45;;;;;;;2.53;1.40;;;;;;;;;;5024738;28;20340;-83
2022/06/03 10:23:13;;;;;;;2.20;1.50;;;;;;;;;;5028857;28;20228;-83
2022/06/03 10:25:41;;;;;;;2.23;1.50;;;;;;;;;;5028682;28;20672;-81
2022/06/03 10:28:09;;;;;;;3.63;1.60;;;;;;;;;;5025759;28;20293;-82
2022/06/03 10:30:39;;;;;;;3.50;1.70;;;;;;;;;;5027000;28;20231;-81
2022/06/03 10:33:07;;;;;;;3.83;1.77;;;;;;;;;;5024548;28;20299;-82
2022/06/03 10:35:39;;;;;;;3.53;1.47;;;;;;;;;;5022765;28;20216;-83
2022/06/03 10:38:08;;;;;;;2.43;1.67;;;;;;;;;;5025769;28;20793;-83
2022/06/03 10:40:39;;;;;;;1.97;1.70;;;;;;;;;;5024431;28;20310;-83
2022/06/03 10:43:07;;;;;;;2.13;1.60;;;;;;;;;;5026385;28;20220;-82
2022/06/03 10:45:36;;;;;;;3.87;1.80;;;;;;;;;;5017066;28;20222;-82
2022/06/03 10:48:19;;;;;;;2.30;1.93;;;;;;;;;;5023502;28;20204;-82
2022/06/03 10:50:46;;;;;;;1.90;1.70;;;;;;;;;;5024355;28;20224;-82
2022/06/03 11:01:45;;;;;;;3.60;1.80;;;;;;;;;;5027594;28;20250;-82
2022/06/03 11:04:24;;;;;;;3.23;1.70;;;;;;;;;;5026177;28;20258;-83
2022/06/03 11:06:51;;;;;;;6.57;2.07;;;;;;;;;;5022942;28;20257;-83
2022/06/03 11:09:22;;;;;;;3.87;1.87;;;;;;;;;;5022525;28;20211;-81
2022/06/03 11:11:51;;;;;;;6.27;2.20;;;;;;;;;;5030052;28;20601;-82
2022/06/03 11:14:29;;;;;;;4.63;1.87;;;;;;;;;;5026235;28;20215;-82
2022/06/03 11:17:06;;;;;;;5.67;1.83;;;;;;;;;;5027752;28;20202;-82
2022/06/03 11:19:34;;;;;;;2.93;1.70;;;;;;;;;;5028276;28;20287;-82
2022/06/03 11:22:12;;;;;;;3.60;1.63;;;;;;;;;;5026945;28;20237;-83
2022/06/03 11:24:42;;;;;;;2.37;2.00;;;;;;;;;;5024131;28;20314;-82
2022/06/03 11:27:11;;;;;;;6.60;1.80;;;;;;;;;;5024189;28;20583;-82
2022/06/03 11:29:39;;;;;;;2.13;1.73;;;;;;;;;;5025517;28;20615;-82
2022/06/03 11:32:09;;;;;;;3.03;1.60;;;;;;;;;;5024236;28;20310;-82
2022/06/03 11:34:37;;;;;;;10.10;1.97;;;;;;;;;;5024718;28;20268;-83
2022/06/03 11:37:05;;;;;;;2.13;1.83;;;;;;;;;;5025735;28;20218;-82
2022/06/03 11:39:38;;;;;;;2.10;1.73;;;;;;;;;;5028029;28;20218;-82
2022/06/03 11:42:10;;;;;;;2.30;1.67;;;;;;;;;;5018003;28;20266;-83
2022/06/03 11:44:38;;;;;;;3.30;1.70;;;;;;;;;;5024446;28;20194;-82
2022/06/03 11:47:08;;;;;;;3.07;1.80;;;;;;;;;;5026566;28;21019;-82
2022/06/03 11:49:35;;;;;;;4.90;1.70;;;;;;;;;;5032479;28;20296;-82
2022/06/03 11:52:03;;;;;;;2.60;1.83;;;;;;;;;;5026824;28;20238;-81
2022/06/03 11:54:31;;;;;;;2.53;1.93;;;;;;;;;;5025919;28;20670;-82
2022/06/03 11:57:00;;;;;;;3.10;1.80;;;;;;;;;;5023515;28;20220;-81
2022/06/03 11:59:33;;;;;;;3.27;1.70;;;;;;;;;;5026085;28;20240;-82
2022/06/03 12:02:04;;;;;;;3.93;2.10;;;;;;;;;;5024939;28;20660;-82
2022/06/03 12:04:38;;;;;;;4.73;2.10;;;;;;;;;;5025673;28;20213;-81
2022/06/03 12:07:08;;;;;;;5.03;1.90;;;;;;;;;;5021876;28;20252;-81
2022/06/03 12:09:45;;;;;;;3.07;1.80;;;;;;;;;;5026326;28;20213;-80
2022/06/03 12:15:28;;;;;;;2.47;2.00;;;;;;;;;;5031232;28;20765;-79
2022/06/03 12:17:55;;;;;;;2.00;1.80;;;;;;;;;;5028231;28;20379;-82
2022/06/03 12:20:41;;;;;;;3.10;2.13;;;;;;;;;;5029281;28;20230;-81
2022/06/03 12:23:26;;;;;;;3.03;2.03;;;;;;;;;;5031383;28;20215;-81
2022/06/03 12:26:07;;;;;;;3.57;2.23;;;;;;;;;;5027260;28;20204;-82
2022/06/03 12:28:42;;;;;;;4.13;1.90;;;;;;;;;;5029850;28;20290;-83
2022/06/03 12:31:14;;;;;;;5.00;2.17;;;;;;;;;;5026595;28;20220;-84
2022/06/03 12:33:45;;;;;;;4.33;2.00;;;;;;;;;;5026488;28;20210;-83
2022/06/03 12:36:27;;;;;;;3.33;1.90;;;;;;;;;;5024809;28;20772;-82
2022/06/03 12:38:56;;;;;;;2.77;2.00;;;;;;;;;;5021869;28;20287;-83
2022/06/03 12:41:57;;;;;;;5.27;2.00;;;;;;;;;;5019600;28;20306;-82
2022/06/03 12:44:58;;;;;;;26.03;4.40;;;;;;;;;;5025297;28;20198;-82
2022/06/03 12:47:45;;;;;;;7.47;2.50;;;;;;;;;;5026727;28;21936;-84
2022/06/03 12:50:37;;;;;;;2.77;2.20;;;;;;;;;;5030740;28;20201;-82
2022/06/03 12:53:22;;;;;;;3.70;2.17;;;;;;;;;;5006603;28;20683;-84
2022/06/03 12:55:54;;;;;;;8.60;2.53;;;;;;;;;;5028421;28;20213;-83
2022/06/03 12:58:38;;;;;;;3.23;2.07;;;;;;;;;;5024585;28;20634;-84
2022/06/03 13:01:06;;;;;;;5.40;2.40;;;;;;;;;;5023876;28;20699;-84
2022/06/03 13:03:42;;;;;;;26.80;3.90;;;;;;;;;;5027655;28;20259;-84
2022/06/03 13:06:09;;;;;;;4.80;2.40;;;;;;;;;;5024006;28;20247;-83
2022/06/03 13:09:34;;;;;;;3.07;2.20;;;;;;;;;;5025310;28;20269;-83
2022/06/03 13:11:42;;;;;;;4.33;2.20;;;;;;;;;;5027187;28;20253;-85
2022/06/03 13:14:17;;;;;;;8.30;2.23;;;;;;;;;;5026235;28;20210;-83
2022/06/03 13:16:46;;;;;;;2.67;2.20;;;;;;;;;;5026477;28;20228;-82
2022/06/03 13:19:31;;;;;;;3.70;2.27;;;;;;;;;;5025378;28;20213;-82
2022/06/03 13:22:09;;;;;;;6.60;2.47;;;;;;;;;;5016759;28;20229;-84
2022/06/03 13:24:37;;;;;;;5.10;2.23;;;;;;;;;;5031812;28;20239;-82
2022/06/03 13:27:09;;;;;;;3.93;2.60;;;;;;;;;;5027301;28;21088;-83
2022/06/03 13:29:55;;;;;;;2.47;1.90;;;;;;;;;;5028041;28;20208;-83
2022/06/03 13:32:26;;;;;;;5.90;2.30;;;;;;;;;;5025541;28;20234;-83
2022/06/03 13:35:06;;;;;;;4.13;2.13;;;;;;;;;;5024771;28;20216;-83
2022/06/03 13:37:45;;;;;;;3.90;2.17;;;;;;;;;;5024696;28;20246;-83
2022/06/03 13:40:21;;;;;;;9.10;2.50;;;;;;;;;;5027298;28;20206;-84
2022/06/03 13:42:58;;;;;;;3.13;2.30;;;;;;;;;;5028257;28;20304;-84
2022/06/03 13:45:27;;;;;;;3.53;2.20;;;;;;;;;;5026485;28;20297;-83
2022/06/03 13:47:55;;;;;;;4.10;2.40;;;;;;;;;;5027407;28;20208;-82
2022/06/03 13:50:31;;;;;;;3.13;2.17;;;;;;;;;;5026011;28;20224;-84
2022/06/03 13:53:01;;;;;;;5.13;2.20;;;;;;;;;;5028565;28;20195;-84
2022/06/03 13:55:31;;;;;;;2.67;2.30;;;;;;;;;;5023240;28;20263;-84
2022/06/03 13:58:01;;;;;;;4.20;2.43;;;;;;;;;;5027612;28;20261;-82
2022/06/03 14:00:31;;;;;;;6.00;2.30;;;;;;;;;;5021558;28;20232;-83
2022/06/03 14:03:09;;;;;;;4.27;2.47;;;;;;;;;;5022775;28;20796;-84
2022/06/03 14:05:40;;;;;;;3.80;2.37;;;;;;;;;;5025211;28;20219;-83
2022/06/03 14:08:14;;;;;;;4.77;2.27;;;;;;;;;;5024177;28;20253;-83
2022/06/03 14:10:44;;;;;;;4.30;2.57;;;;;;;;;;5024548;28;20318;-83
2022/06/03 14:13:16;;;;;;;3.93;2.40;;;;;;;;;;5027728;28;20294;-84
2022/06/03 14:15:50;;;;;;;4.33;2.27;;;;;;;;;;5030635;28;20215;-82
2022/06/03 14:18:32;;;;;;;4.40;2.70;;;;;;;;;;5026717;28;20733;-83
2022/06/03 14:20:59;;;;;;;12.47;5.80;;;;;;;;;;5026895;28;20639;-82
2022/06/03 14:23:31;;;;;;;4.27;2.57;;;;;;;;;;5027855;28;20653;-81
2022/06/03 14:32:09;;;;;;;2.60;2.20;;;;;;;;;;5025661;28;20286;-84
2022/06/03 14:34:40;;;;;;;5.17;2.50;;;;;;;;;;5019431;28;20255;-84
2022/06/03 14:37:08;;;;;;;7.07;2.77;;;;;;;;;;5025062;28;20208;-81
2022/06/03 14:39:38;;;;;;;2.90;2.30;;;;;;;;;;5025342;28;20219;-83
2022/06/03 14:42:07;;;;;;;3.10;2.57;;;;;;;;;;5025523;28;20607;-82
2022/06/03 14:44:35;;;;;;;5.80;2.40;;;;;;;;;;5020716;28;20233;-82
2022/06/03 14:47:04;;;;;;;4.13;2.50;;;;;;;;;;5025089;28;20653;-83
2022/06/03 14:49:35;;;;;;;3.70;2.70;;;;;;;;;;5022058;28;20311;-81
2022/06/03 14:52:05;;;;;;;3.37;2.53;;;;;;;;;;5024131;28;20228;-81
2022/06/03 14:54:35;;;;;;;6.00;2.80;;;;;;;;;;5023437;28;20640;-81
2022/06/03 14:57:05;;;;;;;5.47;2.47;;;;;;;;;;5025273;28;20699;-83
2022/06/03 14:59:44;;;;;;;8.63;2.43;;;;;;;;;;5027156;28;20215;-81
2022/06/03 15:02:13;;;;;;;4.23;2.43;;;;;;;;;;5024537;28;20254;-83
2022/06/03 15:04:42;;;;;;;5.23;2.30;;;;;;;;;;5024378;28;20307;-82
2022/06/03 15:07:12;;;;;;;8.03;2.50;;;;;;;;;;5024749;28;20220;-82
2022/06/03 15:09:41;;;;;;;4.97;2.60;;;;;;;;;;5026428;28;20243;-83
2022/06/03 15:12:17;;;;;;;4.70;2.50;;;;;;;;;;5021334;28;20681;-83
2022/06/03 15:14:45;;;;;;;5.67;2.13;;;;;;;;;;5024025;28;20669;-83
2022/06/03 15:17:14;;;;;;;5.20;2.63;;;;;;;;;;5023393;28;20219;-83
2022/06/03 15:19:44;;;;;;;5.43;2.63;;;;;;;;;;5021822;28;20685;-84
2022/06/03 15:22:16;;;;;;;6.03;2.40;;;;;;;;;;5024987;28;20607;-84
2022/06/03 15:24:47;;;;;;;3.33;2.63;;;;;;;;;;5025531;28;20231;-83
2022/06/03 15:27:15;;;;;;;3.73;2.67;;;;;;;;;;5021497;28;20204;-83
2022/06/03 15:29:43;;;;;;;2.77;2.50;;;;;;;;;;5024475;28;20207;-81
2022/06/03 15:32:11;;;;;;;4.73;2.20;;;;;;;;;;5025431;28;20290;-83
2022/06/03 15:34:38;;;;;;;4.50;2.63;;;;;;;;;;5023281;28;20204;-81
2022/06/03 15:37:05;;;;;;;3.67;2.27;;;;;;;;;;5025242;28;20207;-80
2022/06/03 15:39:34;;;;;;;2.60;2.30;;;;;;;;;;5023639;28;20207;-81
2022/06/03 15:42:02;;;;;;;3.90;2.50;;;;;;;;;;5025009;28;20224;-82
2022/06/03 15:44:32;;;;;;;3.00;2.53;;;;;;;;;;5024303;28;20245;-81
2022/06/03 15:47:00;;;;;;;6.07;2.47;;;;;;;;;;5021243;28;20196;-83
2022/06/03 15:49:29;;;;;;;2.73;2.50;;;;;;;;;;5023801;28;20270;-81
2022/06/03 15:51:56;;;;;;;4.33;2.50;;;;;;;;;;5020535;28;20231;-83
2022/06/03 15:54:27;;;;;;;4.10;2.67;;;;;;;;;;5017355;28;20643;-81
2022/06/03 15:57:05;;;;;;;4.03;2.50;;;;;;;;;;5021103;28;20208;-81
2022/06/03 15:59:40;;;;;;;11.23;3.20;;;;;;;;;;5022547;28;20258;-81
2022/06/03 16:02:12;;;;;;;10.17;2.73;;;;;;;;;;5028067;28;20223;-82
2022/06/03 16:04:50;;;;;;;3.60;2.60;;;;;;;;;;5020711;28;20243;-81
2022/06/03 16:07:25;;;;;;;4.20;2.60;;;;;;;;;;5022017;28;20216;-81